Barth Airport


Codes: EDBH/BBH
Name: Barth Airport
City:
Country: Germany
Elevation: 23 ft.

Photos at Barth Airport


   Photos courtesy of SpottingLog. You can add your own sightings and photos by signing up for a free trial today.



No photos found.

Weather at Barth Airport


Time (UTC)DescriptionTempratureWindCloud coverageVisibilityPressureHumidity
19-Apr-2024 03:00Overcast Clouds4°C11 mph, SW100%10000m1008hPa86%
19-Apr-2024 06:00Light Rain4°C16 mph, SW100%10000m1007hPa88%
19-Apr-2024 09:00Light Rain4°C13 mph, S100%501m1004hPa94%
19-Apr-2024 12:00Light Rain4°C11 mph, SE100%62m1000hPa97%
19-Apr-2024 15:00Light Rain5°C9 mph, E100%6222m1000hPa95%
19-Apr-2024 18:00Light Rain5°C16 mph, NE100%10000m1001hPa95%
19-Apr-2024 21:00Light Rain4°C20 mph, NE100%5390m1005hPa96%
20-Apr-2024 00:00Light Rain4°C18 mph, NE99%10000m1008hPa80%
20-Apr-2024 03:00Overcast Clouds3°C18 mph, N100%10000m1011hPa75%
20-Apr-2024 06:00Overcast Clouds3°C13 mph, NE90%10000m1014hPa73%
20-Apr-2024 09:00Scattered Clouds5°C13 mph, N29%10000m1017hPa64%
20-Apr-2024 12:00Few Clouds6°C11 mph, N24%10000m1019hPa59%
20-Apr-2024 15:00Few Clouds6°C9 mph, NW14%10000m1020hPa56%
20-Apr-2024 18:00Few Clouds4°C7 mph, W13%10000m1022hPa71%
20-Apr-2024 21:00Light Rain4°C7 mph, N26%10000m1023hPa70%
21-Apr-2024 00:00Light Rain4°C7 mph, N22%10000m1024hPa74%
21-Apr-2024 03:00Light Rain4°C7 mph, NW70%10000m1024hPa81%
21-Apr-2024 06:00Light Rain5°C9 mph, E85%10000m1025hPa78%
21-Apr-2024 09:00Light Rain6°C13 mph, E97%10000m1027hPa73%
21-Apr-2024 12:00Light Rain6°C11 mph, NE98%10000m1028hPa57%
21-Apr-2024 15:00Overcast Clouds6°C11 mph, NE100%10000m1028hPa59%
21-Apr-2024 18:00Overcast Clouds4°C9 mph, NE100%10000m1028hPa63%
21-Apr-2024 21:00Overcast Clouds2°C9 mph, E100%10000m1029hPa65%
22-Apr-2024 00:00Overcast Clouds2°C7 mph, NE100%10000m1028hPa72%
22-Apr-2024 03:00Light Rain1°C7 mph, N94%10000m1027hPa75%
22-Apr-2024 06:00Overcast Clouds3°C13 mph, NE93%10000m1027hPa68%
22-Apr-2024 09:00Broken Clouds4°C11 mph, N67%10000m1026hPa61%
22-Apr-2024 12:00Broken Clouds4°C9 mph, NE83%10000m1026hPa63%
22-Apr-2024 15:00Broken Clouds4°C7 mph, NE83%10000m1025hPa62%
22-Apr-2024 18:00Broken Clouds3°C4 mph, NE76%10000m1024hPa71%
22-Apr-2024 21:00Overcast Clouds1°C2 mph, SE94%10000m1024hPa79%
23-Apr-2024 00:00Broken Clouds0°C4 mph, SW80%10000m1023hPa82%
23-Apr-2024 03:00Broken Clouds0°C4 mph, SW66%10000m1023hPa83%
23-Apr-2024 06:00Broken Clouds3°C4 mph, SW84%10000m1022hPa71%
23-Apr-2024 09:00Broken Clouds6°C4 mph, NW79%10000m1021hPa63%
23-Apr-2024 12:00Broken Clouds7°C9 mph, NW75%10000m1020hPa59%
23-Apr-2024 15:00Few Clouds7°C7 mph, W19%10000m1019hPa56%
23-Apr-2024 18:00Clear Sky5°C4 mph, SW10%10000m1017hPa60%
23-Apr-2024 21:00Few Clouds3°C7 mph, SW11%10000m1016hPa62%
24-Apr-2024 00:00Scattered Clouds3°C9 mph, SW25%10000m1014hPa79%